sensor_id;sensor_type;location;lat;lon;timestamp;pressure;altitude;pressure_sealevel;temperature;humidity
41102;BME280;26845;50.190;19.178;2022-11-15T00:01:09;99018.04;;;5.85;94.13
41102;BME280;26845;50.190;19.178;2022-11-15T00:03:35;99016.95;;;5.89;94.15
41102;BME280;26845;50.190;19.178;2022-11-15T00:06:03;99005.88;;;5.92;94.05
41102;BME280;26845;50.190;19.178;2022-11-15T00:08:32;99006.19;;;5.95;94.06
41102;BME280;26845;50.190;19.178;2022-11-15T00:11:01;99000.91;;;5.91;93.66
41102;BME280;26845;50.190;19.178;2022-11-15T00:13:29;99003.44;;;5.80;93.30
41102;BME280;26845;50.190;19.178;2022-11-15T00:16:13;99010.37;;;5.67;93.12
41102;BME280;26845;50.190;19.178;2022-11-15T00:18:40;99010.13;;;5.51;93.20
41102;BME280;26845;50.190;19.178;2022-11-15T00:21:09;99010.43;;;5.39;93.20
41102;BME280;26845;50.190;19.178;2022-11-15T00:23:37;99004.92;;;5.29;93.32
41102;BME280;26845;50.190;19.178;2022-11-15T00:26:05;99009.63;;;5.13;93.36
41102;BME280;26845;50.190;19.178;2022-11-15T00:28:32;99006.59;;;4.89;93.45
41102;BME280;26845;50.190;19.178;2022-11-15T00:31:03;99004.38;;;4.68;93.72
41102;BME280;26845;50.190;19.178;2022-11-15T00:33:32;99009.58;;;4.57;93.89
41102;BME280;26845;50.190;19.178;2022-11-15T00:36:02;99013.16;;;4.47;94.12
41102;BME280;26845;50.190;19.178;2022-11-15T00:38:33;99012.56;;;4.37;94.45
41102;BME280;26845;50.190;19.178;2022-11-15T00:41:01;99009.27;;;4.33;94.47
41102;BME280;26845;50.190;19.178;2022-11-15T00:43:29;98996.86;;;4.35;94.80
41102;BME280;26845;50.190;19.178;2022-11-15T00:45:56;98996.09;;;4.47;95.19
41102;BME280;26845;50.190;19.178;2022-11-15T00:48:23;98992.52;;;4.60;95.33
41102;BME280;26845;50.190;19.178;2022-11-15T00:50:50;98988.41;;;4.70;95.19
41102;BME280;26845;50.190;19.178;2022-11-15T00:53:17;98992.01;;;4.78;95.19
41102;BME280;26845;50.190;19.178;2022-11-15T00:55:44;98994.48;;;4.90;95.25
41102;BME280;26845;50.190;19.178;2022-11-15T00:58:10;98993.09;;;5.00;95.19
41102;BME280;26845;50.190;19.178;2022-11-15T01:00:37;98987.59;;;5.08;95.08
41102;BME280;26845;50.190;19.178;2022-11-15T01:03:03;98984.28;;;5.16;95.17
41102;BME280;26845;50.190;19.178;2022-11-15T01:05:30;98979.59;;;5.24;95.10
41102;BME280;26845;50.190;19.178;2022-11-15T01:07:57;98977.09;;;5.25;94.76
41102;BME280;26845;50.190;19.178;2022-11-15T01:10:23;98969.91;;;5.32;95.03
41102;BME280;26845;50.190;19.178;2022-11-15T01:12:51;98977.36;;;5.36;94.84
41102;BME280;26845;50.190;19.178;2022-11-15T01:15:18;98970.17;;;5.40;94.91
41102;BME280;26845;50.190;19.178;2022-11-15T01:17:45;98968.27;;;5.36;94.22
41102;BME280;26845;50.190;19.178;2022-11-15T01:20:12;98967.16;;;5.29;94.39
41102;BME280;26845;50.190;19.178;2022-11-15T01:22:39;98967.16;;;5.32;94.58
41102;BME280;26845;50.190;19.178;2022-11-15T01:25:08;98967.45;;;5.33;94.36
41102;BME280;26845;50.190;19.178;2022-11-15T01:27:34;98964.14;;;5.28;94.40
41102;BME280;26845;50.190;19.178;2022-11-15T01:30:01;98961.38;;;5.21;93.85
41102;BME280;26845;50.190;19.178;2022-11-15T01:32:28;98953.97;;;5.03;93.70
41102;BME280;26845;50.190;19.178;2022-11-15T01:34:55;98957.28;;;5.05;94.39
41102;BME280;26845;50.190;19.178;2022-11-15T01:37:23;98954.23;;;5.12;94.70
41102;BME280;26845;50.190;19.178;2022-11-15T01:39:50;98953.41;;;5.16;94.69
41102;BME280;26845;50.190;19.178;2022-11-15T01:42:18;98945.70;;;5.16;94.64
41102;BME280;26845;50.190;19.178;2022-11-15T01:44:49;98942.95;;;5.21;94.78
41102;BME280;26845;50.190;19.178;2022-11-15T01:47:28;98943.20;;;5.30;94.97
41102;BME280;26845;50.190;19.178;2022-11-15T01:50:09;98937.39;;;5.36;94.92
41102;BME280;26845;50.190;19.178;2022-11-15T01:52:38;98933.81;;;5.36;94.56
41102;BME280;26845;50.190;19.178;2022-11-15T01:55:21;98937.12;;;5.38;94.74
41102;BME280;26845;50.190;19.178;2022-11-15T01:57:52;98932.43;;;5.41;94.71
41102;BME280;26845;50.190;19.178;2022-11-15T02:00:21;98934.33;;;5.43;94.78
41102;BME280;26845;50.190;19.178;2022-11-15T02:02:51;98923.61;;;5.39;94.40
41102;BME280;26845;50.190;19.178;2022-11-15T02:05:17;98909.83;;;5.34;94.24
41102;BME280;26845;50.190;19.178;2022-11-15T02:07:45;98912.03;;;5.32;94.31
41102;BME280;26845;50.190;19.178;2022-11-15T02:10:23;98913.71;;;5.28;94.22
41102;BME280;26845;50.190;19.178;2022-11-15T02:12:51;98915.91;;;5.26;94.35
41102;BME280;26845;50.190;19.178;2022-11-15T02:15:19;98905.19;;;5.22;94.44
41102;BME280;26845;50.190;19.178;2022-11-15T02:29:10;98896.94;;;5.09;94.55
41102;BME280;26845;50.190;19.178;2022-11-15T02:32:10;98894.73;;;5.08;94.69
41102;BME280;26845;50.190;19.178;2022-11-15T02:35:04;98889.48;;;5.14;95.13
41102;BME280;26845;50.190;19.178;2022-11-15T02:40:45;98879.28;;;5.15;94.49
41102;BME280;26845;50.190;19.178;2022-11-15T02:46:41;98883.45;;;5.10;94.55
41102;BME280;26845;50.190;19.178;2022-11-15T02:49:35;98885.40;;;4.94;94.38
41102;BME280;26845;50.190;19.178;2022-11-15T02:52:03;98880.71;;;4.89;94.60
41102;BME280;26845;50.190;19.178;2022-11-15T02:54:32;98877.17;;;4.79;94.40
41102;BME280;26845;50.190;19.178;2022-11-15T02:57:06;98866.71;;;4.70;94.50
41102;BME280;26845;50.190;19.178;2022-11-15T02:59:51;98867.53;;;4.73;94.70
41102;BME280;26845;50.190;19.178;2022-11-15T03:16:45;98852.39;;;4.76;94.55
41102;BME280;26845;50.190;19.178;2022-11-15T03:22:58;98856.22;;;4.78;94.54
41102;BME280;26845;50.190;19.178;2022-11-15T03:25:29;98855.66;;;4.81;94.84
41102;BME280;26845;50.190;19.178;2022-11-15T03:27:58;98853.47;;;4.78;94.71
41102;BME280;26845;50.190;19.178;2022-11-15T03:30:29;98849.38;;;4.67;94.41
41102;BME280;26845;50.190;19.178;2022-11-15T03:32:59;98848.81;;;4.63;94.51
41102;BME280;26845;50.190;19.178;2022-11-15T03:35:30;98840.81;;;4.66;94.92
41102;BME280;26845;50.190;19.178;2022-11-15T03:38:26;98839.18;;;4.73;95.17
41102;BME280;26845;50.190;19.178;2022-11-15T03:40:58;98829.50;;;4.81;95.19
41102;BME280;26845;50.190;19.178;2022-11-15T03:43:51;98830.88;;;4.91;95.22
41102;BME280;26845;50.190;19.178;2022-11-15T03:46:19;98826.73;;;4.93;95.07
41102;BME280;26845;50.190;19.178;2022-11-15T03:49:06;98830.86;;;4.99;95.01
41102;BME280;26845;50.190;19.178;2022-11-15T03:51:37;98826.44;;;5.03;94.88
41102;BME280;26845;50.190;19.178;2022-11-15T03:54:05;98820.36;;;5.03;94.83
41102;BME280;26845;50.190;19.178;2022-11-15T03:56:32;98816.79;;;5.03;94.67
41102;BME280;26845;50.190;19.178;2022-11-15T03:58:59;98815.16;;;4.99;94.46
41102;BME280;26845;50.190;19.178;2022-11-15T04:01:25;98806.89;;;4.96;94.49
41102;BME280;26845;50.190;19.178;2022-11-15T04:03:52;98803.59;;;4.97;94.44
41102;BME280;26845;50.190;19.178;2022-11-15T04:06:19;98803.33;;;4.91;94.30
41102;BME280;26845;50.190;19.178;2022-11-15T04:08:45;98802.52;;;4.90;94.51
41102;BME280;26845;50.190;19.178;2022-11-15T04:11:12;98809.11;;;4.89;94.46
41102;BME280;26845;50.190;19.178;2022-11-15T04:13:38;98801.70;;;4.90;94.45
41102;BME280;26845;50.190;19.178;2022-11-15T04:16:05;98791.77;;;4.84;94.29
41102;BME280;26845;50.190;19.178;2022-11-15T04:18:32;98790.39;;;4.84;94.45
41102;BME280;26845;50.190;19.178;2022-11-15T04:21:01;98789.02;;;4.86;94.61
41102;BME280;26845;50.190;19.178;2022-11-15T04:23:46;98780.75;;;4.89;94.56
41102;BME280;26845;50.190;19.178;2022-11-15T04:26:31;98779.38;;;4.86;94.47
41102;BME280;26845;50.190;19.178;2022-11-15T04:28:57;98780.19;;;4.89;94.66
41102;BME280;26845;50.190;19.178;2022-11-15T04:31:41;98777.73;;;4.90;94.45
41102;BME280;26845;50.190;19.178;2022-11-15T04:34:08;98776.61;;;4.89;94.39
41102;BME280;26845;50.190;19.178;2022-11-15T04:36:34;98770.30;;;4.86;94.27
41102;BME280;26845;50.190;19.178;2022-11-15T04:39:19;98772.54;;;4.73;93.88
41102;BME280;26845;50.190;19.178;2022-11-15T04:41:46;98762.91;;;4.68;94.08
41102;BME280;26845;50.190;19.178;2022-11-15T04:44:13;98764.28;;;4.71;94.43
41102;BME280;26845;50.190;19.178;2022-11-15T04:46:39;98763.17;;;4.72;94.50
41102;BME280;26845;50.190;19.178;2022-11-15T04:49:06;98762.36;;;4.69;93.98
41102;BME280;26845;50.190;19.178;2022-11-15T04:51:33;98754.39;;;4.65;94.05
41102;BME280;26845;50.190;19.178;2022-11-15T04:53:59;98758.27;;;4.59;94.14
41102;BME280;26845;50.190;19.178;2022-11-15T04:56:26;98754.41;;;4.57;94.04
41102;BME280;26845;50.190;19.178;2022-11-15T04:58:52;98756.59;;;4.58;94.38
41102;BME280;26845;50.190;19.178;2022-11-15T05:01:19;98754.09;;;4.66;94.71
41102;BME280;26845;50.190;19.178;2022-11-15T05:03:46;98746.38;;;4.73;94.84
41102;BME280;26845;50.190;19.178;2022-11-15T05:06:31;98743.89;;;4.77;94.40
41102;BME280;26845;50.190;19.178;2022-11-15T05:08:58;98740.56;;;4.80;94.55
41102;BME280;26845;50.190;19.178;2022-11-15T05:11:25;98738.91;;;4.87;94.67
41102;BME280;26845;50.190;19.178;2022-11-15T05:13:53;98735.03;;;4.93;94.62
41102;BME280;26845;50.190;19.178;2022-11-15T05:16:20;98728.40;;;4.96;94.44
41102;BME280;26845;50.190;19.178;2022-11-15T05:18:54;98734.16;;;4.98;94.36
41102;BME280;26845;50.190;19.178;2022-11-15T05:21:21;98731.41;;;5.00;94.35
41102;BME280;26845;50.190;19.178;2022-11-15T05:23:48;98731.39;;;5.03;94.22
41102;BME280;26845;50.190;19.178;2022-11-15T05:26:16;98730.88;;;4.98;93.88
41102;BME280;26845;50.190;19.178;2022-11-15T05:28:43;98727.09;;;4.79;93.10
41102;BME280;26845;50.190;19.178;2022-11-15T05:31:13;98728.81;;;4.59;92.90
41102;BME280;26845;50.190;19.178;2022-11-15T05:33:43;98721.42;;;4.37;92.92
41102;BME280;26845;50.190;19.178;2022-11-15T05:36:37;98722.55;;;4.18;92.99
41102;BME280;26845;50.190;19.178;2022-11-15T05:39:06;98721.20;;;4.05;93.23
41102;BME280;26845;50.190;19.178;2022-11-15T05:41:40;98718.16;;;4.04;93.86
41102;BME280;26845;50.190;19.178;2022-11-15T05:44:07;98713.77;;;4.11;94.29
41102;BME280;26845;50.190;19.178;2022-11-15T05:46:37;98714.84;;;4.22;94.52
41102;BME280;26845;50.190;19.178;2022-11-15T05:49:06;98711.80;;;4.29;94.52
41102;BME280;26845;50.190;19.178;2022-11-15T05:51:34;98702.17;;;4.34;94.35
41102;BME280;26845;50.190;19.178;2022-11-15T05:54:01;98704.09;;;4.34;94.11
41102;BME280;26845;50.190;19.178;2022-11-15T05:56:29;98702.16;;;4.37;94.23
41102;BME280;26845;50.190;19.178;2022-11-15T05:58:59;98701.60;;;4.40;94.23
41102;BME280;26845;50.190;19.178;2022-11-15T06:01:26;98697.17;;;4.46;94.40
41102;BME280;26845;50.190;19.178;2022-11-15T06:03:54;98702.42;;;4.43;93.69
41102;BME280;26845;50.190;19.178;2022-11-15T06:06:21;98705.17;;;4.38;93.67
41102;BME280;26845;50.190;19.178;2022-11-15T06:08:47;98704.36;;;4.35;93.75
41102;BME280;26845;50.190;19.178;2022-11-15T06:11:14;98703.80;;;4.35;93.74
41102;BME280;26845;50.190;19.178;2022-11-15T06:13:41;98707.41;;;4.28;93.65
41102;BME280;26845;50.190;19.178;2022-11-15T06:16:07;98712.91;;;4.28;93.86
41102;BME280;26845;50.190;19.178;2022-11-15T06:18:34;98706.33;;;4.21;93.48
41102;BME280;26845;50.190;19.178;2022-11-15T06:21:02;98712.68;;;4.01;93.00
41102;BME280;26845;50.190;19.178;2022-11-15T06:23:31;98707.72;;;3.80;92.94
41102;BME280;26845;50.190;19.178;2022-11-15T06:26:02;98706.63;;;3.74;93.41
41102;BME280;26845;50.190;19.178;2022-11-15T06:28:31;98706.89;;;3.72;93.55
41102;BME280;26845;50.190;19.178;2022-11-15T06:31:08;98703.59;;;3.75;94.12
41102;BME280;26845;50.190;19.178;2022-11-15T06:33:39;98708.28;;;3.90;94.63
41102;BME280;26845;50.190;19.178;2022-11-15T06:36:08;98707.70;;;4.03;94.84
41102;BME280;26845;50.190;19.178;2022-11-15T06:38:36;98704.41;;;4.14;94.76
41102;BME280;26845;50.190;19.178;2022-11-15T06:41:04;98709.64;;;4.16;94.38
41102;BME280;26845;50.190;19.178;2022-11-15T06:43:33;98717.34;;;4.21;94.17
41102;BME280;26845;50.190;19.178;2022-11-15T06:46:02;98717.86;;;4.23;94.39
41102;BME280;26845;50.190;19.178;2022-11-15T06:48:31;98714.55;;;4.26;94.32
41102;BME280;26845;50.190;19.178;2022-11-15T06:51:00;98725.30;;;4.28;94.18
41102;BME280;26845;50.190;19.178;2022-11-15T06:53:27;98720.61;;;4.31;94.46
41102;BME280;26845;50.190;19.178;2022-11-15T06:56:00;98718.94;;;4.38;94.47
41102;BME280;26845;50.190;19.178;2022-11-15T06:58:27;98720.05;;;4.44;94.53
41102;BME280;26845;50.190;19.178;2022-11-15T07:01:03;98723.31;;;4.51;94.67
41102;BME280;26845;50.190;19.178;2022-11-15T07:03:34;98722.48;;;4.56;94.50
41102;BME280;26845;50.190;19.178;2022-11-15T07:06:02;98723.30;;;4.59;94.52
41102;BME280;26845;50.190;19.178;2022-11-15T07:08:30;98723.30;;;4.64;94.55
41102;BME280;26845;50.190;19.178;2022-11-15T07:11:01;98725.19;;;4.66;94.37
41102;BME280;26845;50.190;19.178;2022-11-15T07:13:30;98729.05;;;4.73;94.53
41102;BME280;26845;50.190;19.178;2022-11-15T07:16:04;98730.41;;;4.78;94.51
41102;BME280;26845;50.190;19.178;2022-11-15T07:18:37;98729.29;;;4.82;94.49
41102;BME280;26845;50.190;19.178;2022-11-15T07:21:09;98727.05;;;4.86;94.53
41102;BME280;26845;50.190;19.178;2022-11-15T07:23:39;98731.73;;;4.88;94.28
41102;BME280;26845;50.190;19.178;2022-11-15T07:26:07;98727.91;;;4.84;94.04
41102;BME280;26845;50.190;19.178;2022-11-15T07:28:35;98722.42;;;4.71;93.50
41102;BME280;26845;50.190;19.178;2022-11-15T07:31:04;98725.44;;;4.75;94.08
41102;BME280;26845;50.190;19.178;2022-11-15T07:33:32;98721.03;;;4.82;94.38
41102;BME280;26845;50.190;19.178;2022-11-15T07:36:01;98724.59;;;4.87;94.21
41102;BME280;26845;50.190;19.178;2022-11-15T07:38:30;98722.35;;;4.89;94.30
41102;BME280;26845;50.190;19.178;2022-11-15T07:41:03;98726.77;;;4.93;94.22
41102;BME280;26845;50.190;19.178;2022-11-15T07:43:31;98722.89;;;4.96;94.22
41102;BME280;26845;50.190;19.178;2022-11-15T07:46:08;98728.08;;;5.06;94.52
41102;BME280;26845;50.190;19.178;2022-11-15T07:48:37;98723.13;;;5.05;93.78
41102;BME280;26845;50.190;19.178;2022-11-15T07:51:06;98723.44;;;5.01;93.84
41102;BME280;26845;50.190;19.178;2022-11-15T07:53:33;98724.81;;;5.01;93.87
41102;BME280;26845;50.190;19.178;2022-11-15T07:56:00;98720.69;;;4.99;93.97
41102;BME280;26845;50.190;19.178;2022-11-15T07:58:26;98725.09;;;4.97;93.58
41102;BME280;26845;50.190;19.178;2022-11-15T08:00:53;98715.51;;;4.87;93.61
41102;BME280;26845;50.190;19.178;2022-11-15T08:03:20;98709.45;;;4.85;93.40
41102;BME280;26845;50.190;19.178;2022-11-15T08:05:51;98713.03;;;4.83;93.60
41102;BME280;26845;50.190;19.178;2022-11-15T08:08:18;98708.09;;;4.77;93.57
41102;BME280;26845;50.190;19.178;2022-11-15T08:10:45;98703.38;;;4.88;94.36
41102;BME280;26845;50.190;19.178;2022-11-15T08:13:12;98699.73;;;5.00;94.66
41102;BME280;26845;50.190;19.178;2022-11-15T08:15:39;98694.17;;;5.13;94.77
41102;BME280;26845;50.190;19.178;2022-11-15T08:18:10;98690.23;;;5.27;94.86
41102;BME280;26845;50.190;19.178;2022-11-15T08:20:40;98698.16;;;5.36;94.63
41102;BME280;26845;50.190;19.178;2022-11-15T08:23:08;98692.73;;;5.21;93.38
41102;BME280;26845;50.190;19.178;2022-11-15T08:25:36;98695.48;;;5.21;93.84
41102;BME280;26845;50.190;19.178;2022-11-15T08:28:05;98701.52;;;5.28;94.29
41102;BME280;26845;50.190;19.178;2022-11-15T08:30:41;98694.11;;;5.21;93.52
41102;BME280;26845;50.190;19.178;2022-11-15T08:33:13;98695.26;;;5.12;93.61
41102;BME280;26845;50.190;19.178;2022-11-15T08:35:43;98693.60;;;5.16;94.42
41102;BME280;26845;50.190;19.178;2022-11-15T08:38:10;98696.55;;;5.30;94.80
41102;BME280;26845;50.190;19.178;2022-11-15T08:40:37;98691.77;;;5.43;94.98
41102;BME280;26845;50.190;19.178;2022-11-15T08:43:07;98693.31;;;5.59;95.20
41102;BME280;26845;50.190;19.178;2022-11-15T08:45:35;98696.81;;;5.73;95.11
41102;BME280;26845;50.190;19.178;2022-11-15T08:48:03;98708.03;;;5.84;95.05
41102;BME280;26845;50.190;19.178;2022-11-15T08:50:30;98705.20;;;5.94;94.90
41102;BME280;26845;50.190;19.178;2022-11-15T08:52:57;98698.78;;;6.04;95.08
41102;BME280;26845;50.190;19.178;2022-11-15T08:55:24;98701.72;;;6.15;95.05
41102;BME280;26845;50.190;19.178;2022-11-15T08:57:50;98697.23;;;6.22;94.63
41102;BME280;26845;50.190;19.178;2022-11-15T09:00:17;98697.44;;;6.28;94.48
41102;BME280;26845;50.190;19.178;2022-11-15T09:02:46;98700.74;;;6.30;94.13
41102;BME280;26845;50.190;19.178;2022-11-15T09:05:13;98702.98;;;6.25;93.35
41102;BME280;26845;50.190;19.178;2022-11-15T09:07:41;98705.64;;;6.09;93.17
41102;BME280;26845;50.190;19.178;2022-11-15T09:10:08;98702.12;;;6.01;93.43
41102;BME280;26845;50.190;19.178;2022-11-15T09:12:36;98697.31;;;6.12;94.19
41102;BME280;26845;50.190;19.178;2022-11-15T09:15:07;98693.37;;;6.20;93.86
41102;BME280;26845;50.190;19.178;2022-11-15T09:17:35;98688.86;;;6.32;94.50
41102;BME280;26845;50.190;19.178;2022-11-15T09:20:03;98689.20;;;6.52;94.65
41102;BME280;26845;50.190;19.178;2022-11-15T09:22:30;98689.36;;;6.63;94.25
41102;BME280;26845;50.190;19.178;2022-11-15T09:24:57;98693.11;;;6.72;94.28
41102;BME280;26845;50.190;19.178;2022-11-15T09:27:29;98683.55;;;6.86;94.34
41102;BME280;26845;50.190;19.178;2022-11-15T09:29:56;98674.76;;;6.82;93.29
41102;BME280;26845;50.190;19.178;2022-11-15T09:32:23;98674.16;;;6.85;94.05
41102;BME280;26845;50.190;19.178;2022-11-15T09:34:50;98669.94;;;6.92;94.02
41102;BME280;26845;50.190;19.178;2022-11-15T09:37:16;98667.30;;;7.04;94.27
41102;BME280;26845;50.190;19.178;2022-11-15T09:39:43;98667.42;;;7.15;94.15
41102;BME280;26845;50.190;19.178;2022-11-15T09:45:11;98645.33;;;7.31;94.20
41102;BME280;26845;50.190;19.178;2022-11-15T09:50:50;98621.40;;;7.43;93.84
41102;BME280;26845;50.190;19.178;2022-11-15T09:56:03;98615.65;;;7.56;93.74
41102;BME280;26845;50.190;19.178;2022-11-15T10:04:38;98607.82;;;8.23;94.09
41102;BME280;26845;50.190;19.178;2022-11-15T10:07:17;98604.00;;;8.77;94.65
41102;BME280;26845;50.190;19.178;2022-11-15T10:12:56;98589.25;;;9.74;93.64
41102;BME280;26845;50.190;19.178;2022-11-15T10:15:23;98590.77;;;10.11;92.09
41102;BME280;26845;50.190;19.178;2022-11-15T10:20:54;98585.55;;;10.78;92.19
41102;BME280;26845;50.190;19.178;2022-11-15T10:23:23;98578.77;;;11.11;91.36
41102;BME280;26845;50.190;19.178;2022-11-15T10:25:55;98566.74;;;11.39;91.11
41102;BME280;26845;50.190;19.178;2022-11-15T10:28:29;98571.29;;;11.78;91.18
41102;BME280;26845;50.190;19.178;2022-11-15T10:31:00;98567.86;;;12.13;90.49
41102;BME280;26845;50.190;19.178;2022-11-15T10:33:37;98564.73;;;12.38;89.60
41102;BME280;26845;50.190;19.178;2022-11-15T10:44:26;98555.52;;;12.62;87.33
41102;BME280;26845;50.190;19.178;2022-11-15T10:49:31;98551.20;;;12.58;87.42
41102;BME280;26845;50.190;19.178;2022-11-15T10:54:44;98545.75;;;13.27;87.55
41102;BME280;26845;50.190;19.178;2022-11-15T10:57:19;98547.02;;;13.50;86.52
41102;BME280;26845;50.190;19.178;2022-11-15T10:59:52;98537.27;;;13.57;86.72
41102;BME280;26845;50.190;19.178;2022-11-15T11:02:38;98531.48;;;13.68;86.28
41102;BME280;26845;50.190;19.178;2022-11-15T11:10:55;98539.52;;;13.63;85.13
41102;BME280;26845;50.190;19.178;2022-11-15T11:13:26;98532.20;;;13.02;81.70
41102;BME280;26845;50.190;19.178;2022-11-15T11:18:45;98531.50;;;12.69;85.17
41102;BME280;26845;50.190;19.178;2022-11-15T11:21:23;98528.32;;;12.44;83.18
41102;BME280;26845;50.190;19.178;2022-11-15T11:24:47;98528.34;;;11.97;82.09
41102;BME280;26845;50.190;19.178;2022-11-15T11:30:12;98527.39;;;11.66;84.77
41102;BME280;26845;50.190;19.178;2022-11-15T11:44:30;98498.49;;;11.74;84.13
41102;BME280;26845;50.190;19.178;2022-11-15T11:49:44;98493.13;;;11.83;84.74
41102;BME280;26845;50.190;19.178;2022-11-15T11:57:51;98479.89;;;12.04;84.08
41102;BME280;26845;50.190;19.178;2022-11-15T12:00:35;98473.59;;;12.01;83.70
41102;BME280;26845;50.190;19.178;2022-11-15T12:05:51;98465.86;;;11.91;83.54
41102;BME280;26845;50.190;19.178;2022-11-15T12:08:52;98465.11;;;11.65;82.67
41102;BME280;26845;50.190;19.178;2022-11-15T12:14:24;98460.64;;;11.49;83.12
41102;BME280;26845;50.190;19.178;2022-11-15T12:17:02;98455.42;;;11.47;83.80
41102;BME280;26845;50.190;19.178;2022-11-15T12:19:29;98456.88;;;11.54;83.08
41102;BME280;26845;50.190;19.178;2022-11-15T12:22:03;98449.68;;;11.44;83.29
41102;BME280;26845;50.190;19.178;2022-11-15T12:24:45;98453.33;;;11.36;83.41
41102;BME280;26845;50.190;19.178;2022-11-15T12:29:50;98446.00;;;11.46;83.97
41102;BME280;26845;50.190;19.178;2022-11-15T12:32:33;98436.22;;;11.31;83.05
41102;BME280;26845;50.190;19.178;2022-11-15T12:35:05;98444.44;;;11.19;83.09
41102;BME280;26845;50.190;19.178;2022-11-15T12:45:44;98431.41;;;11.25;84.04
41102;BME280;26845;50.190;19.178;2022-11-15T12:51:05;98429.69;;;11.18;83.47
41102;BME280;26845;50.190;19.178;2022-11-15T12:53:34;98419.05;;;11.20;83.68
41102;BME280;26845;50.190;19.178;2022-11-15T12:58:54;98414.55;;;11.31;84.00
41102;BME280;26845;50.190;19.178;2022-11-15T13:06:52;98402.14;;;11.43;83.82
41102;BME280;26845;50.190;19.178;2022-11-15T13:20:55;98387.06;;;11.53;83.76
41102;BME280;26845;50.190;19.178;2022-11-15T13:23:22;98388.83;;;11.57;83.70
41102;BME280;26845;50.190;19.178;2022-11-15T13:26:13;98386.63;;;11.57;83.45
41102;BME280;26845;50.190;19.178;2022-11-15T13:28:45;98385.23;;;11.57;83.56
41102;BME280;26845;50.190;19.178;2022-11-15T13:31:27;98384.08;;;11.58;83.60
41102;BME280;26845;50.190;19.178;2022-11-15T13:34:16;98380.16;;;11.59;83.73
41102;BME280;26845;50.190;19.178;2022-11-15T13:36:48;98374.59;;;11.59;83.53
41102;BME280;26845;50.190;19.178;2022-11-15T13:39:31;98374.72;;;11.47;83.07
41102;BME280;26845;50.190;19.178;2022-11-15T13:42:03;98376.29;;;11.42;83.24
41102;BME280;26845;50.190;19.178;2022-11-15T13:44:31;98367.12;;;11.42;83.42
41102;BME280;26845;50.190;19.178;2022-11-15T13:47:14;98367.53;;;11.38;83.30
41102;BME280;26845;50.190;19.178;2022-11-15T13:49:46;98363.13;;;11.37;83.29
41102;BME280;26845;50.190;19.178;2022-11-15T13:52:20;98358.38;;;11.37;83.32
41102;BME280;26845;50.190;19.178;2022-11-15T13:55:01;98357.08;;;11.35;83.19
41102;BME280;26845;50.190;19.178;2022-11-15T14:06:08;98342.39;;;11.25;83.32
41102;BME280;26845;50.190;19.178;2022-11-15T14:08:57;98347.23;;;11.22;83.21
41102;BME280;26845;50.190;19.178;2022-11-15T14:11:30;98348.94;;;11.21;83.37
41102;BME280;26845;50.190;19.178;2022-11-15T14:16:44;98349.38;;;11.17;83.26
41102;BME280;26845;50.190;19.178;2022-11-15T14:22:12;98345.74;;;11.01;82.84
41102;BME280;26845;50.190;19.178;2022-11-15T14:25:16;98344.02;;;10.94;83.24
41102;BME280;26845;50.190;19.178;2022-11-15T14:30:46;98334.58;;;10.69;82.52
41102;BME280;26845;50.190;19.178;2022-11-15T14:33:33;98336.33;;;10.50;82.69
41102;BME280;26845;50.190;19.178;2022-11-15T14:36:19;98327.89;;;10.35;82.81
41102;BME280;26845;50.190;19.178;2022-11-15T14:38:49;98333.49;;;10.16;82.76
41102;BME280;26845;50.190;19.178;2022-11-15T14:41:25;98328.59;;;10.04;82.85
41102;BME280;26845;50.190;19.178;2022-11-15T14:43:53;98325.30;;;9.93;83.08
41102;BME280;26845;50.190;19.178;2022-11-15T14:46:20;98325.13;;;9.81;82.97
41102;BME280;26845;50.190;19.178;2022-11-15T14:48:46;98318.19;;;9.81;83.62
41102;BME280;26845;50.190;19.178;2022-11-15T14:51:15;98324.33;;;9.89;83.80
41102;BME280;26845;50.190;19.178;2022-11-15T14:53:44;98314.39;;;9.97;83.83
41102;BME280;26845;50.190;19.178;2022-11-15T14:56:14;98309.49;;;10.02;83.79
41102;BME280;26845;50.190;19.178;2022-11-15T14:58:45;98302.71;;;10.06;83.84
41102;BME280;26845;50.190;19.178;2022-11-15T15:01:25;98303.14;;;10.10;83.80
41102;BME280;26845;50.190;19.178;2022-11-15T15:03:53;98297.58;;;10.10;83.79
41102;BME280;26845;50.190;19.178;2022-11-15T15:06:25;98303.03;;;10.13;83.88
41102;BME280;26845;50.190;19.178;2022-11-15T15:08:52;98297.23;;;10.12;83.72
41102;BME280;26845;50.190;19.178;2022-11-15T15:11:24;98291.77;;;10.09;83.67
41102;BME280;26845;50.190;19.178;2022-11-15T15:13:56;98293.23;;;10.07;83.68
41102;BME280;26845;50.190;19.178;2022-11-15T15:16:25;98291.03;;;10.06;83.91
41102;BME280;26845;50.190;19.178;2022-11-15T15:18:53;98297.39;;;10.07;83.91
41102;BME280;26845;50.190;19.178;2022-11-15T15:21:26;98293.23;;;10.07;83.97
41102;BME280;26845;50.190;19.178;2022-11-15T15:23:57;98291.61;;;10.06;83.90
41102;BME280;26845;50.190;19.178;2022-11-15T15:26:24;98284.31;;;9.99;83.79
41102;BME280;26845;50.190;19.178;2022-11-15T15:28:51;98288.59;;;9.96;83.90
41102;BME280;26845;50.190;19.178;2022-11-15T15:31:19;98282.46;;;9.97;84.05
41102;BME280;26845;50.190;19.178;2022-11-15T15:33:46;98284.66;;;9.97;84.04
41102;BME280;26845;50.190;19.178;2022-11-15T15:36:18;98278.30;;;9.97;84.28
41102;BME280;26845;50.190;19.178;2022-11-15T15:38:47;98280.73;;;9.98;84.19
41102;BME280;26845;50.190;19.178;2022-11-15T15:41:15;98287.67;;;9.98;84.09
41102;BME280;26845;50.190;19.178;2022-11-15T15:43:44;98273.64;;;10.03;84.50
41102;BME280;26845;50.190;19.178;2022-11-15T15:46:16;98277.87;;;10.01;84.04
41102;BME280;26845;50.190;19.178;2022-11-15T15:48:46;98280.27;;;9.96;84.03
41102;BME280;26845;50.190;19.178;2022-11-15T15:51:13;98281.73;;;9.94;84.06
41102;BME280;26845;50.190;19.178;2022-11-15T15:53:40;98282.69;;;9.89;83.96
41102;BME280;26845;50.190;19.178;2022-11-15T15:56:07;98274.78;;;9.85;83.94